createdAt,value
2022-09-23T00:01:15.163Z,5.20
2022-09-23T00:03:46.904Z,5.97
2022-09-23T00:06:17.201Z,4.95
2022-09-23T00:08:44.845Z,5.30
2022-09-23T00:11:15.020Z,5.22
2022-09-23T00:13:44.113Z,5.70
2022-09-23T00:16:21.711Z,5.53
2022-09-23T00:18:50.843Z,5.62
2022-09-23T00:21:19.978Z,5.25
2022-09-23T00:23:48.207Z,5.30
2022-09-23T00:26:18.971Z,5.25
2022-09-23T00:28:47.212Z,5.82
2022-09-23T00:31:16.984Z,5.20
2022-09-23T00:33:44.525Z,4.68
2022-09-23T00:36:16.941Z,4.78
2022-09-23T00:38:45.273Z,5.40
2022-09-23T00:41:16.177Z,5.70
2022-09-23T00:43:58.367Z,6.55
2022-09-23T00:46:36.184Z,6.57
2022-09-23T00:49:23.819Z,5.87
2022-09-23T00:51:58.999Z,5.47
2022-09-23T00:56:55.289Z,6.12
2022-09-23T00:59:24.417Z,5.25
2022-09-23T01:01:56.404Z,6.35
2022-09-23T01:04:24.806Z,5.50
2022-09-23T01:06:52.326Z,5.50
2022-09-23T01:09:20.702Z,4.72
2022-09-23T01:12:39.610Z,5.72
2022-09-23T01:15:42.676Z,6.22
2022-09-23T01:18:13.192Z,5.45
2022-09-23T01:21:03.718Z,5.68
2022-09-23T01:23:53.377Z,5.12
2022-09-23T01:26:35.763Z,5.40
2022-09-23T01:29:28.257Z,5.37
2022-09-23T01:32:26.232Z,5.18
2022-09-23T01:34:59.738Z,5.55
2022-09-23T01:37:41.554Z,5.55
2022-09-23T01:40:34.232Z,5.82
2022-09-23T01:43:11.170Z,5.55
2022-09-23T01:45:43.523Z,5.57
2022-09-23T01:48:19.274Z,5.95
2022-09-23T01:50:56.312Z,5.87
2022-09-23T01:53:45.409Z,6.07
2022-09-23T01:56:17.416Z,5.80
2022-09-23T01:58:50.846Z,5.43
2022-09-23T02:01:24.067Z,5.62
2022-09-23T02:03:59.619Z,5.70
2022-09-23T02:06:33.651Z,6.22
2022-09-23T02:09:06.195Z,6.12
2022-09-23T02:11:36.362Z,5.00
2022-09-23T02:14:14.820Z,5.97
2022-09-23T02:16:51.334Z,5.32
2022-09-23T02:19:28.177Z,5.80
2022-09-23T02:22:03.622Z,4.80
2022-09-23T02:24:34.640Z,4.60
2022-09-23T02:27:26.363Z,5.25
2022-09-23T02:30:09.680Z,6.25
2022-09-23T02:32:46.126Z,5.62
2022-09-23T02:35:37.353Z,5.28
2022-09-23T02:38:23.067Z,5.30
2022-09-23T02:40:57.503Z,5.18
2022-09-23T02:43:36.132Z,5.82
2022-09-23T02:46:05.185Z,5.68
2022-09-23T02:48:43.352Z,5.93
2022-09-23T02:51:11.028Z,6.18
2022-09-23T02:53:38.405Z,5.65
2022-09-23T02:56:22.377Z,5.97
2022-09-23T02:58:54.245Z,6.22
2022-09-23T03:01:40.401Z,5.62
2022-09-23T03:04:17.924Z,6.15
2022-09-23T03:07:06.731Z,5.82
2022-09-23T03:09:40.550Z,6.68
2022-09-23T03:12:07.786Z,6.50
2022-09-23T03:14:48.360Z,6.90
2022-09-23T03:17:26.212Z,6.47
2022-09-23T03:20:25.699Z,8.30
2022-09-23T03:22:57.227Z,8.30
2022-09-23T03:25:25.636Z,7.80
2022-09-23T03:27:57.516Z,7.53
2022-09-23T03:30:26.485Z,8.10
2022-09-23T03:32:54.873Z,7.62
2022-09-23T03:35:24.472Z,7.75
2022-09-23T03:38:07.220Z,7.32
2022-09-23T03:40:41.973Z,7.12
2022-09-23T03:43:12.737Z,6.75
2022-09-23T03:45:41.375Z,7.15
2022-09-23T03:48:09.042Z,7.15
2022-09-23T03:50:36.711Z,6.65
2022-09-23T03:53:04.074Z,7.07
2022-09-23T03:55:32.322Z,7.55
2022-09-23T03:58:02.396Z,6.53
2022-09-23T04:00:29.809Z,6.25
2022-09-23T04:02:57.796Z,6.75
2022-09-23T04:05:25.210Z,6.75
2022-09-23T04:07:53.226Z,8.27
2022-09-23T04:10:20.881Z,8.40
2022-09-23T04:12:48.251Z,9.15
2022-09-23T04:15:15.649Z,7.37
2022-09-23T04:17:43.262Z,7.55
2022-09-23T04:20:10.611Z,6.50
2022-09-23T04:22:38.691Z,7.28
2022-09-23T04:25:06.927Z,7.85
2022-09-23T04:27:37.612Z,7.47
2022-09-23T04:30:07.014Z,8.10
2022-09-23T04:32:34.417Z,8.13
2022-09-23T04:35:01.802Z,8.73
2022-09-23T04:37:29.490Z,8.00
2022-09-23T04:39:56.870Z,8.40
2022-09-23T04:42:24.270Z,8.50
2022-09-23T04:44:51.898Z,7.90
2022-09-23T04:47:19.381Z,9.13
2022-09-23T04:49:46.738Z,8.52
2022-09-23T04:52:14.366Z,8.13
2022-09-23T04:54:41.757Z,7.95
2022-09-23T04:57:11.164Z,8.25
2022-09-23T04:59:38.799Z,7.97
2022-09-23T05:02:06.192Z,8.93
2022-09-23T05:04:33.687Z,8.50
2022-09-23T05:07:03.508Z,8.25
2022-09-23T05:09:31.169Z,8.98
2022-09-23T05:11:58.540Z,9.23
2022-09-23T05:14:26.206Z,8.88
2022-09-23T05:16:53.603Z,10.07
2022-09-23T05:19:21.343Z,10.20
2022-09-23T05:21:49.318Z,9.85
2022-09-23T05:24:16.804Z,10.25
2022-09-23T05:26:44.157Z,10.60
2022-09-23T05:29:11.866Z,10.95
2022-09-23T05:31:39.320Z,11.77
2022-09-23T05:34:06.948Z,9.68
2022-09-23T05:36:38.676Z,8.90
2022-09-23T05:39:07.725Z,9.65
2022-09-23T05:41:36.036Z,7.82
2022-09-23T05:44:03.481Z,8.35
2022-09-23T05:46:31.795Z,7.85
2022-09-23T05:49:03.004Z,7.75
2022-09-23T05:51:34.699Z,7.95
2022-09-23T05:54:05.851Z,8.05
2022-09-23T05:56:34.387Z,7.82
2022-09-23T05:59:03.364Z,7.80
2022-09-23T06:01:34.164Z,8.48
2022-09-23T06:04:04.504Z,7.72
2022-09-23T06:06:34.361Z,7.85
2022-09-23T06:09:02.176Z,8.73
2022-09-23T06:11:31.329Z,7.82
2022-09-23T06:14:02.915Z,7.50
2022-09-23T06:16:32.999Z,8.07
2022-09-23T06:19:05.883Z,7.80
2022-09-23T06:21:36.370Z,7.87
2022-09-23T06:24:04.063Z,7.20
2022-09-23T06:26:33.944Z,7.22
2022-09-23T06:29:02.866Z,7.22
2022-09-23T06:31:30.636Z,6.65
2022-09-23T06:34:11.932Z,5.95
2022-09-23T06:36:44.403Z,4.95
2022-09-23T06:39:14.079Z,5.37
2022-09-23T06:41:42.294Z,5.62
2022-09-23T06:44:11.543Z,6.22
2022-09-23T06:46:38.958Z,6.62
2022-09-23T06:49:06.693Z,6.28
2022-09-23T06:51:34.478Z,7.55
2022-09-23T06:54:01.973Z,6.50
2022-09-23T06:56:31.505Z,7.45
2022-09-23T06:59:02.171Z,6.57
2022-09-23T07:01:29.908Z,6.57
2022-09-23T07:03:57.382Z,5.78
2022-09-23T07:06:24.734Z,5.50
2022-09-23T07:08:53.233Z,4.87
2022-09-23T07:11:22.598Z,5.78
2022-09-23T07:13:50.592Z,5.25
2022-09-23T07:16:18.404Z,5.03
2022-09-23T07:18:45.873Z,5.40
2022-09-23T07:21:16.171Z,5.15
2022-09-23T07:23:46.064Z,4.78
2022-09-23T07:26:14.599Z,5.10
2022-09-23T07:28:42.439Z,5.20
2022-09-23T07:31:12.925Z,5.20
2022-09-23T07:33:44.254Z,4.85
2022-09-23T07:36:17.231Z,4.80
2022-09-23T07:38:46.064Z,4.35
2022-09-23T07:41:16.976Z,5.43
2022-09-23T07:43:45.153Z,4.68
2022-09-23T07:46:15.142Z,4.55
2022-09-23T07:48:44.183Z,5.68
2022-09-23T07:51:18.696Z,4.60
2022-09-23T07:56:14.544Z,4.53
2022-09-23T07:58:41.938Z,4.43
2022-09-23T08:01:10.979Z,3.83
2022-09-23T08:03:39.543Z,4.93
2022-09-23T08:06:13.678Z,4.72
2022-09-23T08:08:43.778Z,3.90
2022-09-23T08:11:14.325Z,3.90
2022-09-23T08:13:42.519Z,4.78
2022-09-23T08:16:10.352Z,4.70
2022-09-23T08:18:38.035Z,3.72
2022-09-23T08:21:05.758Z,4.62
2022-09-23T08:23:33.950Z,4.15
2022-09-23T08:26:05.206Z,3.20
2022-09-23T08:28:33.867Z,3.58
2022-09-23T08:31:01.435Z,4.30
2022-09-23T08:33:28.919Z,5.03
2022-09-23T08:36:01.472Z,4.70
2022-09-23T08:38:29.606Z,4.10
2022-09-23T08:41:17.948Z,3.87
2022-09-23T08:43:49.182Z,4.45
2022-09-23T08:46:22.407Z,4.47
2022-09-23T08:48:50.409Z,4.87
2022-09-23T08:51:24.267Z,5.55
2022-09-23T08:53:52.382Z,5.62
2022-09-23T08:56:22.891Z,4.80
2022-09-23T08:59:04.469Z,4.78
2022-09-23T09:01:53.814Z,4.15
2022-09-23T09:04:36.474Z,4.72
2022-09-23T09:07:31.895Z,5.03
2022-09-23T09:10:06.172Z,4.90
2022-09-23T09:12:43.140Z,4.80
2022-09-23T09:15:20.374Z,4.37
2022-09-23T09:18:02.104Z,4.57
2022-09-23T09:20:29.736Z,5.35
2022-09-23T09:23:00.682Z,4.68
2022-09-23T09:25:34.405Z,4.18
2022-09-23T09:28:03.924Z,5.18
2022-09-23T09:30:32.721Z,5.03
2022-09-23T09:33:16.059Z,4.40
2022-09-23T09:36:11.854Z,5.25
2022-09-23T09:38:39.199Z,4.75
2022-09-23T09:41:18.127Z,4.55
2022-09-23T09:43:56.920Z,4.47
2022-09-23T09:46:39.240Z,4.97
2022-09-23T09:49:23.129Z,5.10
2022-09-23T09:52:12.187Z,5.50
2022-09-23T09:54:39.840Z,4.65
2022-09-23T09:57:16.660Z,5.20
2022-09-23T09:59:44.152Z,5.43
2022-09-23T10:02:12.973Z,5.07
2022-09-23T10:04:41.210Z,4.40
2022-09-23T10:07:13.409Z,5.00
2022-09-23T10:09:48.373Z,5.43
2022-09-23T10:12:21.408Z,4.10
2022-09-23T10:14:51.375Z,4.53
2022-09-23T10:17:24.580Z,3.97
2022-09-23T10:20:00.813Z,3.65
2022-09-23T10:22:32.353Z,4.15
2022-09-23T10:25:04.602Z,3.75
2022-09-23T10:27:35.029Z,4.30
2022-09-23T10:30:14.963Z,3.80
2022-09-23T10:32:45.454Z,3.60
2022-09-23T10:35:17.769Z,3.50
2022-09-23T10:37:59.652Z,3.42
2022-09-23T10:40:49.320Z,3.00
2022-09-23T10:44:03.991Z,3.40
2022-09-23T10:46:41.737Z,3.12
2022-09-23T10:49:18.184Z,3.45
2022-09-23T10:52:04.014Z,3.12
2022-09-23T10:55:02.513Z,3.45
2022-09-23T10:57:45.100Z,3.37
2022-09-23T11:00:28.315Z,3.40
2022-09-23T11:03:26.847Z,3.70
2022-09-23T11:06:12.909Z,3.22
2022-09-23T11:08:53.003Z,3.80
2022-09-23T11:11:34.125Z,3.55
2022-09-23T11:14:08.119Z,4.10
2022-09-23T11:17:04.810Z,3.75
2022-09-23T11:20:11.566Z,3.42
2022-09-23T11:23:17.115Z,3.97
2022-09-23T11:28:33.225Z,3.70
2022-09-23T11:31:28.273Z,3.95
2022-09-23T11:34:26.474Z,4.03
2022-09-23T11:37:02.376Z,3.83
2022-09-23T11:39:51.815Z,3.40
2022-09-23T11:42:33.285Z,3.70
2022-09-23T11:45:13.152Z,3.78
2022-09-23T11:47:48.228Z,3.90
2022-09-23T11:50:23.522Z,4.50
2022-09-23T11:53:02.398Z,4.60
2022-09-23T11:55:34.863Z,4.80
2022-09-23T11:58:23.147Z,4.15
2022-09-23T12:01:01.281Z,4.90
2022-09-23T12:03:44.869Z,4.57
2022-09-23T12:06:16.018Z,4.72
2022-09-23T12:08:44.475Z,4.53
2022-09-23T12:11:32.142Z,3.80
2022-09-23T12:14:10.502Z,3.90
2022-09-23T12:16:45.060Z,3.67
2022-09-23T12:19:43.201Z,3.75
2022-09-23T12:22:20.578Z,3.42
2022-09-23T12:24:56.800Z,2.60
2022-09-23T12:27:45.695Z,3.37
2022-09-23T12:30:25.729Z,3.28
2022-09-23T12:32:54.349Z,3.70
2022-09-23T12:35:25.463Z,3.00
2022-09-23T12:37:53.145Z,3.85
2022-09-23T12:40:47.015Z,3.25
2022-09-23T12:43:32.989Z,2.92
2022-09-23T12:46:29.981Z,3.60
2022-09-23T12:49:00.853Z,3.90
2022-09-23T12:51:30.022Z,3.37
2022-09-23T12:53:59.709Z,2.72
2022-09-23T12:56:29.846Z,3.30
2022-09-23T12:58:59.439Z,2.92
2022-09-23T13:01:27.569Z,3.22
2022-09-23T13:04:15.676Z,3.12
2022-09-23T13:06:47.407Z,2.75
2022-09-23T13:09:24.849Z,2.22
2022-09-23T13:11:53.215Z,2.05
2022-09-23T13:14:27.404Z,2.10
2022-09-23T13:16:58.440Z,2.00
2022-09-23T13:19:25.926Z,1.80
2022-09-23T13:21:53.209Z,1.75
2022-09-23T13:24:42.407Z,1.52
2022-09-23T13:27:20.735Z,1.30
2022-09-23T13:30:06.034Z,1.20
2022-09-23T13:32:37.640Z,1.42
2022-09-23T13:35:27.321Z,1.37
2022-09-23T13:37:55.295Z,1.30
2022-09-23T13:40:24.101Z,1.30
2022-09-23T13:43:02.013Z,1.60
2022-09-23T13:45:34.143Z,1.70
2022-09-23T13:48:06.020Z,1.60
2022-09-23T13:50:35.313Z,1.42
2022-09-23T13:53:07.047Z,1.35
2022-09-23T13:55:39.235Z,1.75
2022-09-23T13:58:21.618Z,1.70
2022-09-23T14:00:50.225Z,1.60
2022-09-23T14:03:25.024Z,1.40
2022-09-23T14:05:53.991Z,1.77
2022-09-23T14:08:22.034Z,1.83
2022-09-23T14:10:49.688Z,1.45
2022-09-23T14:13:28.282Z,1.65
2022-09-23T14:15:59.288Z,1.70
2022-09-23T14:18:39.793Z,1.85
2022-09-23T14:21:25.873Z,1.58
2022-09-23T14:23:53.254Z,1.75
2022-09-23T14:26:21.870Z,1.77
2022-09-23T14:28:49.330Z,1.90
2022-09-23T14:31:16.853Z,1.70
2022-09-23T14:33:44.492Z,1.92
2022-09-23T14:36:34.492Z,2.00
2022-09-23T14:39:10.500Z,1.50
2022-09-23T14:41:40.301Z,1.65
2022-09-23T14:44:18.716Z,1.55
2022-09-23T14:47:00.490Z,1.67
2022-09-23T14:49:28.136Z,1.90
2022-09-23T14:52:00.616Z,2.05
2022-09-23T14:54:35.562Z,2.10
2022-09-23T14:59:36.407Z,2.05
2022-09-23T15:02:27.708Z,2.25
2022-09-23T15:05:08.739Z,2.00
2022-09-23T15:07:38.911Z,2.60
2022-09-23T15:10:09.795Z,2.37
2022-09-23T15:12:45.073Z,2.55
2022-09-23T15:15:13.760Z,2.30
2022-09-23T15:17:41.755Z,1.95
2022-09-23T15:20:19.107Z,2.50
2022-09-23T15:22:48.707Z,2.72
2022-09-23T15:25:25.682Z,2.70
2022-09-23T15:28:16.776Z,3.60
2022-09-23T15:30:44.796Z,5.05
2022-09-23T15:33:16.221Z,4.78
2022-09-23T15:35:49.704Z,3.67
2022-09-23T15:38:17.821Z,3.30
2022-09-23T15:40:45.238Z,3.47
2022-09-23T15:43:21.994Z,3.50
2022-09-23T15:45:55.922Z,4.15
2022-09-23T15:48:26.123Z,4.50
2022-09-23T15:50:54.740Z,4.37
2022-09-23T15:53:26.094Z,13.48
2022-09-23T15:55:54.176Z,12.73
2022-09-23T15:58:22.549Z,10.13
2022-09-23T16:00:56.381Z,8.75
2022-09-23T16:03:30.845Z,7.40
2022-09-23T16:06:02.963Z,4.80
2022-09-23T16:08:32.916Z,5.32
2022-09-23T16:11:00.707Z,6.25
2022-09-23T16:13:28.205Z,7.80
2022-09-23T16:15:56.369Z,5.53
2022-09-23T16:18:23.867Z,5.37
2022-09-23T16:20:51.659Z,7.03
2022-09-23T16:23:40.023Z,6.37
2022-09-23T16:26:15.693Z,8.10
2022-09-23T16:28:44.526Z,7.20
2022-09-23T16:31:15.937Z,9.25
2022-09-23T16:33:44.754Z,15.63
2022-09-23T16:36:28.931Z,18.33
2022-09-23T16:39:00.584Z,13.55
2022-09-23T16:41:32.252Z,14.23
2022-09-23T16:44:01.072Z,8.18
2022-09-23T16:46:29.359Z,10.55
2022-09-23T16:48:57.626Z,10.02
2022-09-23T16:51:30.564Z,9.80
2022-09-23T16:53:59.164Z,11.57
2022-09-23T16:56:29.072Z,10.63
2022-09-23T16:58:57.092Z,11.85
2022-09-23T17:01:45.539Z,10.85
2022-09-23T17:04:14.304Z,12.73
2022-09-23T17:06:50.130Z,13.65
2022-09-23T17:09:23.420Z,30.42
2022-09-23T17:11:58.733Z,14.70
2022-09-23T17:14:26.367Z,19.00
2022-09-23T17:16:53.725Z,28.42
2022-09-23T17:19:21.129Z,20.30
2022-09-23T17:21:48.780Z,25.52
2022-09-23T17:24:16.140Z,18.77
2022-09-23T17:26:49.357Z,19.42
2022-09-23T17:29:20.492Z,18.62
2022-09-23T17:31:47.876Z,15.07
2022-09-23T17:34:16.377Z,36.13
2022-09-23T17:36:44.006Z,29.40
2022-09-23T17:39:11.536Z,24.27
2022-09-23T17:41:39.124Z,22.95
2022-09-23T17:44:08.099Z,20.00
2022-09-23T17:46:35.536Z,20.60
2022-09-23T17:49:04.042Z,17.83
2022-09-23T17:51:31.740Z,16.95
2022-09-23T17:53:59.158Z,25.20
2022-09-23T17:56:26.945Z,26.20
2022-09-23T17:58:54.619Z,25.10
2022-09-23T18:01:24.141Z,25.23
2022-09-23T18:03:59.445Z,24.05
2022-09-23T18:06:29.320Z,22.05
2022-09-23T18:09:00.777Z,22.30
2022-09-23T18:11:29.666Z,18.10
2022-09-23T18:13:58.173Z,19.20
2022-09-23T18:16:28.098Z,17.35
2022-09-23T18:18:57.839Z,15.15
2022-09-23T18:21:27.830Z,27.25
2022-09-23T18:23:59.814Z,27.80
2022-09-23T18:26:34.391Z,20.12
2022-09-23T18:29:02.109Z,14.65
2022-09-23T18:31:32.584Z,12.68
2022-09-23T18:34:01.719Z,10.15
2022-09-23T18:36:29.282Z,10.07
2022-09-23T18:38:56.741Z,9.15
2022-09-23T18:41:24.625Z,8.75
2022-09-23T18:43:52.684Z,10.23
2022-09-23T18:46:24.902Z,14.30
2022-09-23T18:49:11.860Z,11.02
2022-09-23T18:51:56.307Z,8.23
2022-09-23T18:54:25.304Z,7.37
2022-09-23T18:56:52.950Z,6.97
2022-09-23T18:59:24.873Z,7.03
2022-09-23T19:01:55.533Z,6.82
2022-09-23T19:04:25.431Z,7.12
2022-09-23T19:06:56.271Z,9.38
2022-09-23T19:09:23.921Z,9.75
2022-09-23T19:11:52.577Z,9.77
2022-09-23T19:14:20.273Z,7.62
2022-09-23T19:16:49.252Z,8.07
2022-09-23T19:19:16.860Z,7.87
2022-09-23T19:21:44.512Z,7.12
2022-09-23T19:24:15.698Z,6.60
2022-09-23T19:26:44.185Z,5.57
2022-09-23T19:29:16.615Z,5.28
2022-09-23T19:31:44.516Z,6.25
2022-09-23T19:34:19.801Z,5.68
2022-09-23T19:36:48.037Z,6.10
2022-09-23T19:39:17.674Z,6.60
2022-09-23T19:41:46.188Z,6.97
2022-09-23T19:44:16.501Z,7.57
2022-09-23T19:46:46.328Z,7.10
2022-09-23T19:49:13.976Z,8.50
2022-09-23T19:51:41.632Z,9.52
2022-09-23T19:54:09.385Z,9.40
2022-09-23T19:56:36.844Z,8.10
2022-09-23T19:59:07.422Z,7.45
2022-09-23T20:01:35.043Z,7.10
2022-09-23T20:04:02.955Z,5.80
2022-09-23T20:06:31.625Z,7.30
2022-09-23T20:09:00.728Z,9.10
2022-09-23T20:11:28.927Z,7.53
2022-09-23T20:14:01.613Z,7.82
2022-09-23T20:16:32.529Z,9.10
2022-09-23T20:19:00.733Z,7.18
2022-09-23T20:21:29.383Z,6.40
2022-09-23T20:23:57.833Z,6.35
2022-09-23T20:26:44.048Z,5.70
2022-09-23T20:29:12.030Z,5.40
2022-09-23T20:31:41.604Z,5.32
2022-09-23T20:34:10.466Z,4.87
2022-09-23T20:36:40.948Z,5.40
2022-09-23T20:39:09.903Z,4.85
2022-09-23T20:41:39.367Z,4.05
2022-09-23T20:44:10.449Z,4.28
2022-09-23T20:46:38.931Z,3.92
2022-09-23T20:49:08.814Z,4.40
2022-09-23T20:51:37.035Z,4.57
2022-09-23T20:54:04.512Z,3.72
2022-09-23T20:56:32.204Z,4.03
2022-09-23T20:59:00.530Z,4.32
2022-09-23T21:01:28.200Z,3.80
2022-09-23T21:03:56.060Z,4.35
2022-09-23T21:06:26.370Z,4.45
2022-09-23T21:08:54.616Z,4.15
2022-09-23T21:11:22.917Z,4.00
2022-09-23T21:13:51.292Z,3.90
2022-09-23T21:16:21.497Z,4.10
2022-09-23T21:18:51.019Z,3.92
2022-09-23T21:21:19.691Z,4.00
2022-09-23T21:23:47.854Z,4.35
2022-09-23T21:26:19.365Z,3.35
2022-09-23T21:28:48.847Z,3.55
2022-09-23T21:31:25.738Z,3.60
2022-09-23T21:34:01.014Z,3.72
2022-09-23T21:36:30.667Z,4.03
2022-09-23T21:38:59.036Z,3.90
2022-09-23T21:41:26.373Z,3.37
2022-09-23T21:43:56.424Z,3.37
2022-09-23T21:46:24.584Z,3.45
2022-09-23T21:48:53.711Z,3.47
2022-09-23T21:51:26.515Z,3.20
2022-09-23T21:53:55.549Z,3.35
2022-09-23T21:56:25.360Z,3.80
2022-09-23T21:58:57.351Z,3.60
2022-09-23T22:01:36.528Z,3.40
2022-09-23T22:04:09.505Z,3.65
2022-09-23T22:06:38.364Z,3.67
2022-09-23T22:09:09.031Z,3.87
2022-09-23T22:11:56.145Z,3.75
2022-09-23T22:14:25.979Z,3.83
2022-09-23T22:16:58.962Z,3.90
2022-09-23T22:19:35.500Z,3.37
2022-09-23T22:22:15.563Z,3.60
2022-09-23T22:24:44.941Z,3.97
2022-09-23T22:27:13.619Z,3.92
2022-09-23T22:29:59.802Z,3.70
2022-09-23T22:32:46.334Z,3.95
2022-09-23T22:35:19.100Z,3.00
2022-09-23T22:37:47.395Z,3.08
2022-09-23T22:40:15.745Z,3.37
2022-09-23T22:42:43.737Z,3.35
2022-09-23T22:45:12.131Z,3.35
2022-09-23T22:47:41.155Z,3.33
2022-09-23T22:50:09.302Z,3.00
2022-09-23T22:52:37.941Z,3.10
2022-09-23T22:55:08.070Z,3.47
2022-09-23T22:57:36.499Z,4.12
2022-09-23T23:00:05.527Z,3.10
2022-09-23T23:02:33.077Z,3.60
2022-09-23T23:05:00.984Z,4.00
2022-09-23T23:07:28.597Z,3.42
2022-09-23T23:09:55.942Z,3.37
2022-09-23T23:12:24.202Z,2.85
2022-09-23T23:14:51.796Z,3.17
2022-09-23T23:17:19.242Z,2.90
2022-09-23T23:19:47.482Z,3.00
2022-09-23T23:22:15.096Z,2.97
2022-09-23T23:24:42.465Z,3.12
2022-09-23T23:27:09.919Z,2.72
2022-09-23T23:29:37.743Z,3.00
2022-09-23T23:32:06.012Z,3.05
2022-09-23T23:34:33.417Z,3.30
2022-09-23T23:37:01.441Z,3.25
2022-09-23T23:39:28.837Z,2.95
2022-09-23T23:41:58.090Z,2.67
2022-09-23T23:44:26.809Z,2.65
2022-09-23T23:46:54.918Z,2.28
2022-09-23T23:49:22.634Z,2.20
2022-09-23T23:51:50.292Z,2.80
2022-09-23T23:54:17.645Z,2.58
2022-09-23T23:56:45.011Z,2.70
2022-09-23T23:59:12.908Z,3.15
